Time;durP1;ratioP1;P1;durP2;ratioP2;P2;SDS_P1;SDS_P2;PMS_P1;PMS_P2;Temp;Humidity;BMP_temperature;BMP_pressure;BME280_temperature;BME280_humidity;BME280_pressure;Samples;Min_cycle;Max_cycle;Signal;HPM_P1;HPM_P2
2021/11/21 00:04:03;;;;;;;18.40;11.30;;;;;;;9.23;99.58;100151.30;5054271;58;1143250;-79
2021/11/21 00:09:09;;;;;;;18.40;10.70;;;;;;;9.25;99.56;100152.03;5054164;58;1141056;-82
2021/11/21 00:14:15;;;;;;;15.78;10.28;;;;;;;9.22;98.78;100139.06;5054208;58;1141135;-78
2021/11/21 00:19:20;;;;;;;19.83;10.63;;;;;;;9.21;98.42;100132.11;5054142;58;1141179;-74
2021/11/21 00:24:26;;;;;;;19.57;10.77;;;;;;;9.21;98.39;100133.91;5044483;58;1139062;-80
2021/11/21 00:29:32;;;;;;;18.17;11.60;;;;;;;9.23;98.41;100127.56;5112018;57;1139351;-81
2021/11/21 00:34:38;;;;;;;19.53;12.63;;;;;;;9.21;98.53;100118.92;5072827;57;1139023;-77
2021/11/21 00:39:44;;;;;;;18.93;12.77;;;;;;;9.17;98.46;100113.52;5044505;58;1139007;-80
2021/11/21 00:44:50;;;;;;;19.80;12.73;;;;;;;9.19;98.69;100105.00;5044538;58;1139046;-79
2021/11/21 00:49:56;;;;;;;22.87;13.20;;;;;;;9.18;98.83;100099.36;5044492;58;1139277;-81
2021/11/21 00:55:15;;;;;;;18.90;11.20;;;;;;;9.16;98.90;100103.95;5044715;58;1138977;-78
2021/11/21 01:00:20;;;;;;;19.97;13.53;;;;;;;9.11;98.91;100095.06;5040935;57;1139017;-79
2021/11/21 01:05:26;;;;;;;19.13;12.83;;;;;;;9.09;99.20;100081.15;5044549;58;1139035;-81
2021/11/21 01:10:32;;;;;;;19.60;10.27;;;;;;;9.07;99.33;100076.95;5044913;57;1139144;-82
2021/11/21 01:15:38;;;;;;;20.83;12.90;;;;;;;9.03;99.53;100080.30;5044609;58;1138547;-82
2021/11/21 01:20:46;;;;;;;18.67;11.67;;;;;;;9.02;99.65;100075.14;5044576;57;1138996;-79
2021/11/21 01:25:51;;;;;;;18.80;12.10;;;;;;;9.01;99.86;100066.90;5044464;58;1139563;-81
2021/11/21 01:30:57;;;;;;;21.10;14.03;;;;;;;8.97;99.95;100064.97;5046067;58;1139113;-75
2021/11/21 01:36:04;;;;;;;25.90;13.60;;;;;;;8.96;100.00;100054.54;5046413;58;1139068;-81
2021/11/21 01:41:10;;;;;;;23.60;14.07;;;;;;;8.92;100.00;100043.86;5046599;58;1139107;-81
2021/11/21 01:46:16;;;;;;;23.43;13.97;;;;;;;8.92;100.00;100037.27;5046541;58;1139069;-82
2021/11/21 01:51:23;;;;;;;20.47;12.20;;;;;;;8.90;100.00;100040.02;5046497;58;1143168;-82
2021/11/21 01:56:29;;;;;;;21.90;14.23;;;;;;;8.87;100.00;100021.80;5046473;58;1143226;-77
2021/11/21 02:01:35;;;;;;;27.47;13.33;;;;;;;8.87;100.00;100020.48;5046676;58;1143099;-82
2021/11/21 02:06:41;;;;;;;26.50;16.40;;;;;;;8.85;100.00;100017.15;5046472;58;1143140;-81
2021/11/21 02:11:47;;;;;;;22.47;12.37;;;;;;;8.83;100.00;100003.72;5046369;58;1143230;-80
2021/11/21 02:16:53;;;;;;;21.13;12.43;;;;;;;8.80;100.00;100000.84;5046326;58;1143200;-80
2021/11/21 02:21:59;;;;;;;24.03;14.80;;;;;;;8.76;100.00;99988.37;5074189;57;1143186;-82
2021/11/21 02:27:05;;;;;;;25.30;15.47;;;;;;;8.77;100.00;99996.64;5064664;57;1141376;-79
2021/11/21 02:32:11;;;;;;;23.45;14.38;;;;;;;8.76;100.00;99994.13;5149063;57;1141047;-75
2021/11/21 02:37:17;;;;;;;30.33;16.73;;;;;;;8.74;100.00;99998.19;5149233;57;1141135;-77
2021/11/21 02:42:30;;;;;;;21.93;14.17;;;;;;;8.71;100.00;99985.24;5140657;57;1141215;-79
2021/11/21 02:47:35;;;;;;;25.75;15.53;;;;;;;8.68;100.00;99986.83;5083773;57;1141165;-82
2021/11/21 02:52:41;;;;;;;23.60;14.10;;;;;;;8.66;100.00;99982.62;5059106;58;1141187;-82
2021/11/21 02:57:47;;;;;;;20.23;11.67;;;;;;;8.63;100.00;99974.48;5053959;58;1141103;-85
2021/11/21 03:02:54;;;;;;;21.60;12.93;;;;;;;8.62;100.00;99974.59;5059221;58;1141248;-77
2021/11/21 03:07:59;;;;;;;20.17;14.33;;;;;;;8.58;100.00;99962.13;5126951;57;1141168;-74
2021/11/21 03:13:08;;;;;;;20.83;12.53;;;;;;;8.55;100.00;99966.34;5066352;57;1141078;-84
2021/11/21 03:18:14;;;;;;;23.13;12.20;;;;;;;8.49;100.00;99974.72;5066433;57;1141219;-79
2021/11/21 03:23:20;;;;;;;20.23;13.37;;;;;;;8.42;100.00;99970.86;5123974;57;1141288;-82
2021/11/21 03:28:26;;;;;;;20.70;13.10;;;;;;;8.39;100.00;99961.90;5149746;57;1141243;-80
2021/11/21 03:33:32;;;;;;;22.13;11.20;;;;;;;8.41;100.00;99971.81;5149769;57;1141396;-78
2021/11/21 03:38:37;;;;;;;19.00;12.60;;;;;;;8.40;100.00;99956.48;5149837;57;1141151;-81
2021/11/21 03:43:43;;;;;;;22.30;15.47;;;;;;;8.41;100.00;99948.09;5189791;56;1141342;-81
2021/11/21 03:48:50;;;;;;;22.17;13.77;;;;;;;8.40;100.00;99947.26;5023326;58;1141151;-75
2021/11/21 03:53:56;;;;;;;17.73;10.83;;;;;;;8.38;100.00;99938.66;5021719;58;1141178;-76
2021/11/21 03:59:02;;;;;;;21.70;13.27;;;;;;;8.38;100.00;99939.14;4963508;59;1141130;-82
2021/11/21 04:04:07;;;;;;;21.97;12.97;;;;;;;8.36;100.00;99934.46;5010537;58;1141139;-77
2021/11/21 04:09:13;;;;;;;23.47;13.33;;;;;;;8.33;100.00;99924.16;5039253;58;1141157;-81
2021/11/21 04:14:19;;;;;;;25.60;14.90;;;;;;;8.31;100.00;99920.77;5149717;57;1141211;-82
2021/11/21 04:19:25;;;;;;;25.90;16.40;;;;;;;8.29;100.00;99910.34;5149666;57;1141354;-78
2021/11/21 04:24:31;;;;;;;22.30;14.80;;;;;;;8.30;100.00;99915.14;5072271;57;1141398;-80
2021/11/21 04:29:37;;;;;;;17.80;11.23;;;;;;;8.28;100.00;99898.12;5066162;58;1141361;-78
2021/11/21 04:34:42;;;;;;;25.60;15.75;;;;;;;8.25;100.00;99907.58;5026188;58;1141172;-82
2021/11/21 04:39:48;;;;;;;23.63;14.20;;;;;;;8.26;100.00;99900.03;4991580;59;1141182;-74
2021/11/21 04:44:55;;;;;;;21.00;13.30;;;;;;;8.26;100.00;99889.98;4991433;59;1141191;-76
2021/11/21 04:50:01;;;;;;;26.97;17.13;;;;;;;8.25;100.00;99889.14;4991533;59;1141198;-81
2021/11/21 04:55:09;;;;;;;21.43;12.47;;;;;;;8.26;100.00;99879.44;4991511;59;1141250;-81
2021/11/21 05:00:19;;;;;;;28.03;16.27;;;;;;;8.26;100.00;99885.55;4991466;59;1141128;-84
2021/11/21 05:05:26;;;;;;;34.43;19.77;;;;;;;8.24;100.00;99878.27;4991508;59;1139282;-81
2021/11/21 05:10:32;;;;;;;23.30;14.80;;;;;;;8.25;100.00;99877.80;4991287;59;1139013;-77
2021/11/21 05:15:38;;;;;;;27.13;14.87;;;;;;;8.25;100.00;99877.80;4991481;59;1139281;-82
2021/11/21 05:20:44;;;;;;;28.43;18.47;;;;;;;8.24;100.00;99880.07;5005285;58;1139055;-78
2021/11/21 05:25:50;;;;;;;29.70;17.47;;;;;;;8.23;100.00;99879.70;5072371;58;1139077;-78
2021/11/21 05:30:55;;;;;;;27.57;16.17;;;;;;;8.20;100.00;99870.24;5071221;58;1139017;-81
2021/11/21 05:36:01;;;;;;;28.47;15.97;;;;;;;8.15;100.00;99863.17;4989207;59;1139525;-78
2021/11/21 05:41:08;;;;;;;28.30;16.93;;;;;;;8.14;100.00;99864.13;5071268;58;1139021;-81
2021/11/21 05:46:13;;;;;;;27.60;15.23;;;;;;;8.10;100.00;99867.94;5071224;58;1138490;-75
2021/11/21 05:51:19;;;;;;;31.33;19.30;;;;;;;8.05;100.00;99859.11;5071314;58;1138964;-77
2021/11/21 05:56:26;;;;;;;33.67;16.37;;;;;;;8.04;100.00;99848.21;5071461;57;1139035;-77
2021/11/21 06:01:31;;;;;;;29.87;17.03;;;;;;;8.04;100.00;99848.69;5071361;57;1139335;-73
2021/11/21 06:06:38;;;;;;;30.10;16.33;;;;;;;8.06;100.00;99853.36;5071344;57;1139084;-80
2021/11/21 06:11:44;;;;;;;36.17;18.23;;;;;;;8.04;100.00;99845.58;5071277;57;1139212;-77
2021/11/21 06:16:51;;;;;;;25.30;15.63;;;;;;;8.01;100.00;99847.60;5071473;58;1139166;-79
2021/11/21 06:21:57;;;;;;;31.93;16.67;;;;;;;8.00;100.00;99838.86;5029002;58;1139012;-80
2021/11/21 06:27:03;;;;;;;28.60;16.97;;;;;;;7.98;100.00;99830.72;5060942;58;1139543;-82
2021/11/21 06:32:09;;;;;;;32.93;16.03;;;;;;;7.98;100.00;99832.87;4990946;59;1137011;-80
2021/11/21 06:37:15;;;;;;;31.10;17.40;;;;;;;7.99;100.00;99841.14;5134424;57;1136990;-77
2021/11/21 06:42:21;;;;;;;28.73;17.27;;;;;;;8.00;100.00;99844.61;5118471;57;1141095;-78
2021/11/21 06:47:26;;;;;;;30.08;19.07;;;;;;;7.98;100.00;99838.62;5121409;57;1141191;-80
2021/11/21 06:52:33;;;;;;;29.77;18.53;;;;;;;7.96;100.00;99833.47;5142527;57;1141438;-81
2021/11/21 06:57:39;;;;;;;33.73;19.57;;;;;;;7.97;100.00;99834.30;5160592;57;1141229;-75
2021/11/21 07:02:45;;;;;;;37.87;19.87;;;;;;;7.95;100.00;99836.22;5160371;57;1141193;-77
2021/11/21 07:07:51;;;;;;;35.40;21.20;;;;;;;7.96;100.00;99826.88;5160445;57;1141113;-77
2021/11/21 07:12:58;;;;;;;37.03;20.63;;;;;;;7.95;100.00;99837.05;5152101;57;1141177;-83
2021/11/21 07:18:04;;;;;;;50.30;27.43;;;;;;;7.95;100.00;99830.47;5114608;57;1141129;-77
2021/11/21 07:23:11;;;;;;;37.47;20.83;;;;;;;7.96;100.00;99833.47;5098277;57;1141056;-78
2021/11/21 07:28:17;;;;;;;39.03;24.50;;;;;;;7.92;100.00;99833.37;5005270;57;1141315;-78
2021/11/21 07:33:23;;;;;;;33.03;19.50;;;;;;;7.93;100.00;99835.05;5050580;57;1141172;-79
2021/11/21 07:38:28;;;;;;;35.70;20.70;;;;;;;7.92;100.00;99839.95;5079505;57;1141114;-79
2021/11/21 07:43:34;;;;;;;31.47;16.43;;;;;;;7.94;100.00;99835.41;5021464;57;1141117;-81
2021/11/21 07:48:41;;;;;;;35.60;19.10;;;;;;;7.95;100.00;99843.64;5109131;57;1141045;-79
2021/11/21 07:53:47;;;;;;;36.53;20.30;;;;;;;7.96;100.00;99849.74;5048219;57;1141171;-83
2021/11/21 07:58:53;;;;;;;41.53;22.33;;;;;;;7.98;100.00;99834.67;5063131;57;1141164;-83
2021/11/21 08:03:59;;;;;;;63.92;23.98;;;;;;;7.99;100.00;99838.50;5075189;57;1141282;-82
2021/11/21 08:09:04;;;;;;;42.20;21.60;;;;;;;7.98;100.00;99835.51;5148209;56;1141132;-84
2021/11/21 08:14:10;;;;;;;53.07;25.53;;;;;;;7.98;100.00;99834.67;5187435;56;1141118;-83
2021/11/21 08:19:16;;;;;;;58.27;27.47;;;;;;;8.00;100.00;99840.18;5137402;56;1141309;-83
2021/11/21 08:24:21;;;;;;;41.10;23.03;;;;;;;8.01;100.00;99838.39;5199924;56;1141007;-83
2021/11/21 08:29:28;;;;;;;43.77;19.83;;;;;;;8.03;100.00;99836.00;5136566;56;1141085;-82
2021/11/21 08:34:34;;;;;;;65.27;28.70;;;;;;;8.08;100.00;99833.86;5168328;56;1141127;-82
2021/11/21 08:39:41;;;;;;;47.00;21.73;;;;;;;8.13;100.00;99838.27;5161832;56;1140639;-82
2021/11/21 08:44:47;;;;;;;40.63;21.17;;;;;;;8.16;100.00;99845.09;5162439;56;1141043;-82
2021/11/21 08:49:52;;;;;;;56.80;24.67;;;;;;;8.18;100.00;99835.28;5157026;56;1141115;-81
2021/11/21 08:54:58;;;;;;;43.23;17.60;;;;;;;8.20;100.00;99840.42;5184475;56;1141178;-83
2021/11/21 09:00:07;;;;;;;33.73;16.07;;;;;;;8.21;100.00;99846.06;5209919;56;1141166;-83
2021/11/21 09:05:13;;;;;;;40.07;19.93;;;;;;;8.23;100.00;99846.78;5125290;56;1141127;-82
2021/11/21 09:10:22;;;;;;;36.23;18.77;;;;;;;8.27;100.00;99853.45;5123965;57;1141268;-82
2021/11/21 09:15:27;;;;;;;40.93;19.07;;;;;;;8.28;100.00;99853.34;5086741;57;1141136;-83
2021/11/21 09:20:33;;;;;;;54.57;24.00;;;;;;;8.27;100.00;99849.50;5134178;56;1141133;-82
2021/11/21 09:25:40;;;;;;;97.33;44.70;;;;;;;8.25;100.00;99847.50;5149956;56;1141014;-82
2021/11/21 09:30:45;;;;;;;31.10;18.00;;;;;;;8.24;100.00;99841.39;5187342;56;1141084;-84
2021/11/21 09:35:52;;;;;;;37.97;15.90;;;;;;;8.26;100.00;99831.55;5149113;56;1141210;-83
2021/11/21 09:40:58;;;;;;;39.37;16.60;;;;;;;8.27;100.00;99831.06;5169299;57;1141129;-83
2021/11/21 09:46:03;;;;;;;35.23;19.00;;;;;;;8.28;100.00;99830.11;5072941;57;1141166;-84
2021/11/21 09:51:09;;;;;;;27.80;16.50;;;;;;;8.32;100.00;99839.48;5068204;58;1141327;-83
2021/11/21 09:56:16;;;;;;;26.60;14.38;;;;;;;8.31;100.00;99831.19;5068134;58;1141199;-82
2021/11/21 10:01:40;;;;;;;25.23;14.63;;;;;;;8.31;100.00;99823.29;5068251;58;1139326;-83
2021/11/21 10:06:49;;;;;;;23.57;10.50;;;;;;;8.29;100.00;99822.56;5067501;58;1139085;-83
2021/11/21 10:12:04;;;;;;;19.23;11.27;;;;;;;8.30;100.00;99817.18;5067949;58;1139006;-84
2021/11/21 10:17:22;;;;;;;23.77;12.83;;;;;;;8.28;100.00;99816.94;5121875;57;1139094;-82
2021/11/21 10:22:49;;;;;;;36.37;20.77;;;;;;;8.27;100.00;99824.48;5101044;57;1139069;-84
2021/11/21 10:28:19;;;;;;;23.30;13.97;;;;;;;8.32;100.00;99830.27;5096201;57;1136941;-83
2021/11/21 10:33:28;;;;;;;24.10;12.50;;;;;;;8.30;100.00;99827.72;5106845;56;1141095;-83
2021/11/21 10:38:53;;;;;;;23.83;13.95;;;;;;;8.29;100.00;99829.99;5110025;57;1141210;-87
2021/11/21 10:44:08;;;;;;;23.40;14.20;;;;;;;8.30;100.00;99830.83;5133879;57;1141069;-86
2021/11/21 10:49:31;;;;;;;130.87;61.33;;;;;;;8.31;100.00;99830.71;5177497;56;1141187;-85
2021/11/21 10:54:52;;;;;;;76.63;53.73;;;;;;;8.29;100.00;99831.78;5168769;56;1143202;-87
2021/11/21 11:00:01;;;;;;;168.87;82.13;;;;;;;8.27;100.00;99830.59;5192853;56;1141146;-87
2021/11/21 11:05:15;;;;;;;71.60;35.27;;;;;;;8.23;100.00;99824.39;5163224;56;1143092;-87
2021/11/21 11:10:28;;;;;;;118.47;59.30;;;;;;;8.17;100.00;99823.55;5167527;56;1141364;-87
2021/11/21 11:15:39;;;;;;;87.02;46.25;;;;;;;8.13;100.00;99822.45;5169325;56;1143188;-85
2021/11/21 11:20:56;;;;;;;65.67;34.30;;;;;;;8.13;100.00;99826.41;5183871;56;1141071;-85
2021/11/21 11:26:05;;;;;;;47.77;29.00;;;;;;;8.13;100.00;99829.52;5176290;56;1141135;-86
2021/11/21 11:31:27;;;;;;;28.63;17.77;;;;;;;8.12;100.00;99826.05;5162256;56;1140965;-85
2021/11/21 11:36:35;;;;;;;20.30;11.95;;;;;;;8.07;100.00;99820.80;5163715;56;1141287;-83
2021/11/21 11:41:41;;;;;;;21.97;12.23;;;;;;;8.13;100.00;99832.16;5187022;56;1139089;-86
2021/11/21 11:46:47;;;;;;;23.57;13.67;;;;;;;8.12;100.00;99828.69;5172536;56;1139010;-84
2021/11/21 11:51:55;;;;;;;19.73;12.30;;;;;;;8.12;100.00;99822.09;5172167;56;1139068;-84
2021/11/21 11:57:13;;;;;;;25.43;14.83;;;;;;;8.12;100.00;99823.41;5190658;56;1139052;-83
2021/11/21 12:02:35;;;;;;;24.85;12.65;;;;;;;8.13;100.00;99826.41;5198340;56;1139045;-83
2021/11/21 12:07:44;;;;;;;23.12;13.88;;;;;;;8.13;100.00;99826.89;5180810;56;1139045;-83
2021/11/21 12:13:07;;;;;;;23.70;12.87;;;;;;;8.14;100.00;99832.52;5160829;56;1139047;-85
2021/11/21 12:18:08;;;;;;;29.80;12.30;;;;;;;8.16;100.00;99835.03;5189572;56;1138996;-84
2021/11/21 12:23:15;;;;;;;22.57;12.67;;;;;;;8.20;100.00;99831.20;5191028;56;1139176;-85
2021/11/21 12:28:21;;;;;;;19.30;12.60;;;;;;;8.21;100.00;99825.83;5180058;56;1136810;-86
2021/11/21 12:33:28;;;;;;;23.42;13.62;;;;;;;8.22;100.00;99825.34;5200683;56;1136882;-81
2021/11/21 12:38:35;;;;;;;21.83;12.10;;;;;;;8.21;100.00;99828.94;5186215;56;1141154;-83
2021/11/21 12:43:41;;;;;;;46.20;19.27;;;;;;;8.22;100.00;99835.41;5218849;56;1141136;-83
2021/11/21 12:48:47;;;;;;;171.20;72.13;;;;;;;8.22;100.00;99828.81;5196322;56;1141155;-85
2021/11/21 12:53:56;;;;;;;56.17;23.60;;;;;;;8.26;100.00;99833.34;5158218;56;1143082;-76
2021/11/21 12:59:00;;;;;;;71.87;26.97;;;;;;;8.32;100.00;99840.33;5143089;56;1141132;-77
2021/11/21 13:04:06;;;;;;;51.63;27.10;;;;;;;8.41;100.00;99845.33;5138377;56;1141055;-87
2021/11/21 13:09:15;;;;;;;27.83;14.97;;;;;;;8.46;100.00;99845.81;5134904;57;1141124;-75
2021/11/21 13:14:20;;;;;;;29.13;17.40;;;;;;;8.46;100.00;99847.13;5200333;56;1141260;-80
2021/11/21 13:19:26;;;;;;;36.50;17.30;;;;;;;8.47;100.00;99846.17;5162145;56;1141199;-84
2021/11/21 13:24:35;;;;;;;24.30;14.23;;;;;;;8.51;100.00;99841.03;5195618;56;1141150;-76
2021/11/21 13:29:40;;;;;;;18.52;11.20;;;;;;;8.56;100.00;99848.55;5183592;56;1141215;-81
2021/11/21 13:34:46;;;;;;;28.23;15.87;;;;;;;8.52;100.00;99842.70;5174349;56;1141126;-79
2021/11/21 13:39:53;;;;;;;21.03;12.10;;;;;;;8.51;100.00;99850.25;5187713;56;1140535;-82
2021/11/21 13:44:59;;;;;;;23.90;11.67;;;;;;;8.53;100.00;99850.13;5228461;56;1141060;-79
2021/11/21 13:50:06;;;;;;;16.77;10.13;;;;;;;8.52;100.00;99861.63;5228028;56;1141167;-78
2021/11/21 13:55:13;;;;;;;16.93;9.57;;;;;;;8.54;100.00;99871.09;5208805;56;1141116;-80
2021/11/21 14:00:24;;;;;;;19.97;11.20;;;;;;;8.54;100.00;99871.58;5182804;56;1139126;-82
2021/11/21 14:05:29;;;;;;;19.23;12.10;;;;;;;8.56;100.00;99878.86;5190161;56;1141096;-80
2021/11/21 14:10:38;;;;;;;18.20;10.30;;;;;;;8.53;100.00;99876.01;5183005;56;1141152;-81
2021/11/21 14:15:44;;;;;;;15.23;9.30;;;;;;;8.54;100.00;99879.48;5172762;56;1140969;-80
2021/11/21 14:20:51;;;;;;;26.03;14.83;;;;;;;8.54;100.00;99879.48;5173720;56;1138997;-77
2021/11/21 14:26:04;;;;;;;14.77;9.93;;;;;;;8.54;100.00;99889.55;5228403;56;1141758;-72
2021/11/21 14:31:22;;;;;;;15.63;7.97;;;;;;;8.53;100.00;99895.77;5229543;56;1139071;-80
2021/11/21 14:36:30;;;;;;;15.97;8.83;;;;;;;8.50;100.00;99894.70;5229684;56;1139087;-72
2021/11/21 14:41:42;;;;;;;16.37;9.30;;;;;;;8.44;100.00;99903.07;5229935;56;1139011;-86
2021/11/21 14:46:48;;;;;;;9.93;6.50;;;;;;;8.42;100.00;99904.98;5230503;56;1139009;-84
2021/11/21 14:51:53;;;;;;;12.73;6.97;;;;;;;8.40;100.00;99899.83;5230261;56;1137242;-85
2021/11/21 14:57:15;;;;;;;7.83;5.13;;;;;;;8.37;100.00;99906.68;5230057;56;1139267;-76
2021/11/21 15:02:18;;;;;;;10.83;5.00;;;;;;;8.33;100.00;99910.51;5228522;56;1136891;-76
2021/11/21 15:07:26;;;;;;;13.37;4.97;;;;;;;8.29;100.00;99916.93;5179500;56;1136920;-82
2021/11/21 15:12:32;;;;;;;9.13;4.53;;;;;;;8.25;100.00;99926.02;5226664;56;1136937;-84
2021/11/21 15:17:38;;;;;;;14.67;5.67;;;;;;;8.24;100.00;99930.95;5156559;56;1134864;-84
2021/11/21 15:22:43;;;;;;;7.60;4.43;;;;;;;8.21;100.00;99925.08;5139596;56;1136825;-84
2021/11/21 15:27:50;;;;;;;9.10;5.90;;;;;;;8.18;100.00;99935.84;5206383;56;1134748;-81
2021/11/21 15:32:55;;;;;;;7.23;4.93;;;;;;;8.11;100.00;99938.09;5205749;56;1134856;-83
2021/11/21 15:38:01;;;;;;;13.87;6.07;;;;;;;8.04;100.00;99935.12;5230473;56;1134873;-79
2021/11/21 15:43:07;;;;;;;11.03;5.50;;;;;;;8.03;100.00;99947.08;5225500;56;1136954;-80
2021/11/21 15:48:13;;;;;;;11.73;4.80;;;;;;;7.98;100.00;99952.69;5180299;56;1136988;-80
2021/11/21 15:53:19;;;;;;;12.63;5.33;;;;;;;7.95;100.00;99956.86;5189746;56;1137002;-81
2021/11/21 15:58:25;;;;;;;11.03;5.70;;;;;;;7.93;100.00;99961.43;5177676;56;1137090;-82
2021/11/21 16:03:31;;;;;;;8.47;5.40;;;;;;;7.93;100.00;99968.48;5184260;56;1137093;-82
2021/11/21 16:08:37;;;;;;;12.53;6.77;;;;;;;7.91;100.00;99979.61;5188354;56;1134879;-79
2021/11/21 16:13:43;;;;;;;22.10;11.97;;;;;;;7.90;100.00;99981.41;5186477;56;1136922;-81
2021/11/21 16:18:49;;;;;;;13.80;8.30;;;;;;;7.91;100.00;99981.77;5180402;56;1139070;-79
2021/11/21 16:23:55;;;;;;;13.50;7.70;;;;;;;7.93;100.00;99995.66;5169939;56;1137069;-77
2021/11/21 16:29:01;;;;;;;16.13;8.07;;;;;;;7.92;100.00;99999.25;5186711;56;1137185;-82
2021/11/21 16:34:07;;;;;;;67.70;34.40;;;;;;;7.88;100.00;100000.42;5175001;56;1136873;-81
2021/11/21 16:39:12;;;;;;;34.27;18.47;;;;;;;7.82;100.00;100000.02;5185181;56;1139040;-80
2021/11/21 16:44:19;;;;;;;73.00;39.90;;;;;;;7.81;100.00;100012.34;5193921;56;1139053;-81
2021/11/21 16:49:25;;;;;;;161.57;89.67;;;;;;;7.82;100.00;100014.50;5193951;56;1143197;-76
2021/11/21 16:54:30;;;;;;;86.80;53.03;;;;;;;7.80;100.00;100017.72;5192707;56;1145475;-78
2021/11/21 16:59:36;;;;;;;43.37;26.23;;;;;;;7.82;100.00;100031.14;5204057;56;1143256;-82
2021/11/21 17:04:43;;;;;;;24.47;15.47;;;;;;;7.87;100.00;100036.91;5194876;56;1143698;-87
2021/11/21 17:09:49;;;;;;;30.83;19.30;;;;;;;7.84;100.00;100039.77;5198560;56;1143163;-80
2021/11/21 17:14:56;;;;;;;51.27;18.07;;;;;;;7.83;100.00;100048.62;5193007;56;1143071;-88
2021/11/21 17:20:09;;;;;;;78.77;41.63;;;;;;;7.87;100.00;100059.77;5194371;56;1143162;-88
2021/11/21 17:25:14;;;;;;;;;;;;;;;7.89;100.00;100057.87;5193598;56;1143236;-84
2021/11/21 17:30:21;;;;;;;59.63;36.90;;;;;;;7.89;100.00;100063.98;5196414;56;976207;-87
2021/11/21 17:35:28;;;;;;;26.17;15.87;;;;;;;7.97;100.00;100066.87;5194097;56;1141144;-87
2021/11/21 17:40:35;;;;;;;34.40;15.37;;;;;;;8.00;100.00;100063.17;5189693;56;1143511;-88
2021/11/21 17:45:42;;;;;;;60.73;29.83;;;;;;;7.96;100.00;100063.87;5186362;56;1143175;-80
2021/11/21 17:50:50;;;;;;;17.80;10.40;;;;;;;7.95;100.00;100072.72;5143752;56;1143149;-87
2021/11/21 17:56:00;;;;;;;19.67;10.27;;;;;;;7.98;100.00;100072.50;5143309;57;1143163;-86
2021/11/21 18:01:06;;;;;;;22.50;9.97;;;;;;;8.12;100.00;100084.16;5143496;57;1143144;-79
2021/11/21 18:06:13;;;;;;;20.93;9.70;;;;;;;8.19;100.00;100091.15;5188440;56;1141125;-81
2021/11/21 18:11:19;;;;;;;26.17;14.43;;;;;;;8.10;100.00;100095.77;5188286;56;1141225;-77
2021/11/21 18:16:26;;;;;;;17.60;7.70;;;;;;;8.02;100.00;100104.72;5189074;56;1143251;-80
2021/11/21 18:21:33;;;;;;;79.83;40.13;;;;;;;7.89;100.00;100107.89;5171611;56;1141127;-79
2021/11/21 18:26:40;;;;;;;19.00;8.40;;;;;;;7.81;100.00;100117.65;5195036;56;1143299;-79
2021/11/21 18:31:45;;;;;;;39.80;17.70;;;;;;;7.78;100.00;100127.11;5183273;56;1141303;-77
2021/11/21 18:36:52;;;;;;;31.57;15.73;;;;;;;7.70;100.00;100143.44;5182434;56;1143526;-76
2021/11/21 18:41:59;;;;;;;17.93;8.37;;;;;;;7.68;100.00;100141.39;5161527;56;1143322;-81
2021/11/21 18:47:05;;;;;;;20.83;10.80;;;;;;;7.64;100.00;100146.97;5142682;57;1141262;-77
2021/11/21 18:52:15;;;;;;;24.57;12.30;;;;;;;7.71;100.00;100150.86;5143516;57;1143341;-85
2021/11/21 18:57:28;;;;;;;35.13;17.37;;;;;;;7.76;100.00;100155.34;5143551;57;1143207;-87
2021/11/21 19:02:39;;;;;;;45.33;20.87;;;;;;;7.80;100.00;100165.98;5143791;57;1143193;-85
2021/11/21 19:07:45;;;;;;;122.47;43.17;;;;;;;7.74;100.00;100177.81;5143737;57;1143232;-80
2021/11/21 19:12:51;;;;;;;43.00;16.80;;;;;;;7.63;100.00;100188.27;5143487;57;1145205;-85
2021/11/21 19:17:57;;;;;;;23.10;9.55;;;;;;;7.58;100.00;100190.38;5152371;56;1143173;-82
2021/11/21 19:23:03;;;;;;;24.63;10.30;;;;;;;7.50;100.00;100190.06;5117450;57;1141540;-75
2021/11/21 19:28:10;;;;;;;20.53;10.30;;;;;;;7.51;100.00;100191.74;5053048;57;1143482;-78
2021/11/21 19:33:16;;;;;;;31.20;12.53;;;;;;;7.56;100.00;100200.64;5080989;57;1141246;-75
2021/11/21 19:38:26;;;;;;;39.18;15.60;;;;;;;7.57;100.00;100213.69;5009977;57;1139239;-73
2021/11/21 19:43:30;;;;;;;40.03;16.80;;;;;;;7.59;100.00;100219.70;5001899;58;1141303;-79
2021/11/21 19:48:41;;;;;;;42.27;21.63;;;;;;;7.61;100.00;100226.17;4891590;59;1141202;-80
2021/11/21 19:53:43;;;;;;;54.70;23.30;;;;;;;7.64;100.00;100236.45;4994606;58;1140778;-78
2021/11/21 19:58:49;;;;;;;51.27;22.50;;;;;;;7.66;100.00;100238.04;4889854;59;1141143;-81
2021/11/21 20:03:55;;;;;;;153.90;48.67;;;;;;;7.58;100.00;100249.59;4907013;59;1141356;-79
2021/11/21 20:09:01;;;;;;;89.07;25.97;;;;;;;7.43;100.00;100243.23;4989176;58;1143240;-74
2021/11/21 20:14:07;;;;;;;30.57;12.30;;;;;;;7.33;100.00;100245.66;4962322;58;1141140;-79
2021/11/21 20:19:13;;;;;;;24.50;11.12;;;;;;;7.26;100.00;100249.64;5014604;58;1141047;-84
2021/11/21 20:24:20;;;;;;;14.93;8.17;;;;;;;7.26;100.00;100254.44;5031039;58;1141349;-85
2021/11/21 20:29:26;;;;;;;19.83;7.47;;;;;;;7.28;100.00;100259.12;5099209;57;1139004;-77
2021/11/21 20:34:35;;;;;;;12.60;6.60;;;;;;;7.26;100.00;100267.59;5117149;57;1137504;-80
2021/11/21 20:39:44;;;;;;;39.93;11.67;;;;;;;7.21;100.00;100265.73;5192218;56;1138896;-79
2021/11/21 20:44:51;;;;;;;50.00;16.87;;;;;;;7.18;100.00;100278.27;5117313;56;1141160;-77
2021/11/21 20:49:57;;;;;;;49.37;15.77;;;;;;;7.12;100.00;100283.45;5130285;57;1141167;-81
2021/11/21 20:55:04;;;;;;;45.63;16.07;;;;;;;7.06;100.00;100286.01;5151295;57;1139356;-79
2021/11/21 21:00:14;;;;;;;31.03;12.30;;;;;;;7.07;100.00;100288.17;5151266;57;1139015;-81
2021/11/21 21:05:21;;;;;;;21.97;9.45;;;;;;;7.04;100.00;100296.25;5151401;57;1141212;-80
2021/11/21 21:10:27;;;;;;;36.17;12.95;;;;;;;7.08;100.00;100309.58;5151471;57;1141629;-75
2021/11/21 21:15:33;;;;;;;53.20;22.43;;;;;;;7.08;100.00;100309.58;5151382;57;1143146;-74
2021/11/21 21:20:38;;;;;;;61.67;24.63;;;;;;;7.10;100.00;100310.33;5149173;57;1143156;-78
2021/11/21 21:25:44;;;;;;;110.33;40.67;;;;;;;7.08;100.00;100310.89;5121275;57;1143443;-88
2021/11/21 21:30:50;;;;;;;84.23;32.43;;;;;;;6.90;99.51;100326.09;5121237;57;1143433;-81
2021/11/21 21:35:57;;;;;;;76.43;29.93;;;;;;;6.78;99.68;100326.05;5121370;57;1139079;-80
2021/11/21 21:41:04;;;;;;;74.20;28.23;;;;;;;6.74;99.91;100327.19;5119652;56;1141195;-83
2021/11/21 21:46:10;;;;;;;88.00;31.70;;;;;;;6.78;100.00;100335.25;5142279;56;1141147;-84
2021/11/21 21:51:16;;;;;;;76.13;29.13;;;;;;;6.78;100.00;100342.66;5142301;56;1143213;-82
2021/11/21 21:56:21;;;;;;;115.10;34.57;;;;;;;6.79;100.00;100342.20;5142338;56;1143223;-77
2021/11/21 22:01:27;;;;;;;122.73;39.37;;;;;;;6.72;99.79;100335.66;5142512;56;1143236;-85
2021/11/21 22:06:38;;;;;;;107.67;34.97;;;;;;;6.65;99.70;100331.27;5142215;56;1141499;-75
2021/11/21 22:11:43;;;;;;;114.50;33.87;;;;;;;6.60;99.30;100344.69;5045425;57;1143339;-89
2021/11/21 22:16:49;;;;;;;102.57;31.50;;;;;;;6.55;98.86;100355.98;5045454;57;1143588;-77
2021/11/21 22:21:54;;;;;;;101.50;32.33;;;;;;;6.49;99.15;100350.27;5031809;57;1143184;-82
2021/11/21 22:27:00;;;;;;;86.53;30.03;;;;;;;6.49;99.54;100358.14;5002094;58;1141137;-83
2021/11/21 22:32:07;;;;;;;61.25;19.80;;;;;;;6.47;99.70;100366.58;5053003;58;1139108;-82
2021/11/21 22:37:13;;;;;;;69.58;21.25;;;;;;;6.44;99.77;100371.55;5117563;57;1139118;-84
2021/11/21 22:42:19;;;;;;;61.18;17.32;;;;;;;6.42;99.40;100370.80;5127169;57;1141393;-81
2021/11/21 22:47:25;;;;;;;48.23;15.80;;;;;;;6.36;99.06;100388.28;5127485;57;1141171;-79
2021/11/21 22:52:31;;;;;;;45.13;15.77;;;;;;;6.40;99.81;100387.16;5136712;57;1141433;-78
2021/11/21 22:57:37;;;;;;;52.10;16.80;;;;;;;6.46;100.00;100391.16;5152154;57;1141604;-76